Time;durP1;ratioP1;P1;durP2;ratioP2;P2;SDS_P1;SDS_P2;PMS_P1;PMS_P2;Temp;Humidity;BMP_temperature;BMP_pressure;BME280_temperature;BME280_humidity;BME280_pressure;Samples;Min_cycle;Max_cycle;Signal;HPM_P1;HPM_P2
2021/03/07 00:00:51;;;;;;;5.23;3.50;;;;;;;;;;5051851;28;20525;-75
2021/03/07 00:03:18;;;;;;;5.32;3.13;;;;;;;;;;5051043;28;20456;-75
2021/03/07 00:05:44;;;;;;;3.10;2.80;;;;;;;;;;5051517;28;20215;-73
2021/03/07 00:08:10;;;;;;;3.63;3.10;;;;;;;;;;5051828;28;20213;-75
2021/03/07 00:10:36;;;;;;;3.63;3.00;;;;;;;;;;5051784;28;20475;-75
2021/03/07 00:13:02;;;;;;;6.10;3.10;;;;;;;;;;5051562;28;20424;-74
2021/03/07 00:15:28;;;;;;;3.95;3.00;;;;;;;;;;5051704;28;20427;-73
2021/03/07 00:17:54;;;;;;;3.57;2.93;;;;;;;;;;5051197;28;20205;-73
2021/03/07 00:20:22;;;;;;;3.47;3.17;;;;;;;;;;5051642;28;20428;-75
2021/03/07 00:22:48;;;;;;;7.38;3.35;;;;;;;;;;5051517;28;20447;-73
2021/03/07 00:25:15;;;;;;;5.20;2.88;;;;;;;;;;5050886;28;20257;-74
2021/03/07 00:27:41;;;;;;;6.30;2.78;;;;;;;;;;5051686;28;20185;-75
2021/03/07 00:30:08;;;;;;;3.42;2.65;;;;;;;;;;5051147;28;20652;-74
2021/03/07 00:32:34;;;;;;;4.70;3.78;;;;;;;;;;5051252;28;20347;-75
2021/03/07 00:35:01;;;;;;;6.40;3.03;;;;;;;;;;5053871;28;20229;-73
2021/03/07 00:37:27;;;;;;;4.55;3.53;;;;;;;;;;5055026;28;20624;-73
2021/03/07 00:39:53;;;;;;;4.20;3.35;;;;;;;;;;5055449;28;20213;-73
2021/03/07 00:42:19;;;;;;;3.00;2.80;;;;;;;;;;5055237;28;20197;-73
2021/03/07 00:44:45;;;;;;;10.30;3.22;;;;;;;;;;5054851;28;20761;-73
2021/03/07 00:47:12;;;;;;;3.80;3.27;;;;;;;;;;5054178;28;20190;-74
2021/03/07 00:49:38;;;;;;;5.18;3.20;;;;;;;;;;5053989;28;20472;-74
2021/03/07 00:52:04;;;;;;;5.80;3.37;;;;;;;;;;5054333;28;20728;-73
2021/03/07 00:54:30;;;;;;;2.92;2.63;;;;;;;;;;5054492;28;20460;-75
2021/03/07 00:56:56;;;;;;;4.20;3.15;;;;;;;;;;5054356;28;20276;-75
2021/03/07 00:59:22;;;;;;;4.30;2.97;;;;;;;;;;5054325;28;20609;-73
2021/03/07 01:01:48;;;;;;;6.93;3.63;;;;;;;;;;5054195;28;20443;-74
2021/03/07 01:04:14;;;;;;;5.30;2.90;;;;;;;;;;5054521;28;20431;-75
2021/03/07 01:06:40;;;;;;;3.78;2.35;;;;;;;;;;5053827;28;20225;-74
2021/03/07 01:09:07;;;;;;;3.40;2.75;;;;;;;;;;5054050;28;20188;-73
2021/03/07 01:11:34;;;;;;;5.88;2.95;;;;;;;;;;5053719;28;20232;-75
2021/03/07 01:14:00;;;;;;;3.05;2.35;;;;;;;;;;5053889;28;20229;-74
2021/03/07 01:16:26;;;;;;;2.63;1.90;;;;;;;;;;5053861;28;20184;-73
2021/03/07 01:18:52;;;;;;;5.18;3.08;;;;;;;;;;5053786;28;20444;-72
2021/03/07 01:21:18;;;;;;;3.65;3.20;;;;;;;;;;5053994;28;20598;-74
2021/03/07 01:23:44;;;;;;;3.42;2.40;;;;;;;;;;5053376;28;20240;-75
2021/03/07 01:26:10;;;;;;;2.50;2.30;;;;;;;;;;5054049;28;20255;-74
2021/03/07 01:28:36;;;;;;;3.93;2.67;;;;;;;;;;5053981;28;20268;-73
2021/03/07 01:31:02;;;;;;;6.07;4.38;;;;;;;;;;5054182;28;20444;-72
2021/03/07 01:33:28;;;;;;;6.70;2.40;;;;;;;;;;5054113;28;20626;-74
2021/03/07 01:35:54;;;;;;;5.50;3.22;;;;;;;;;;5053620;28;20233;-73
2021/03/07 01:38:20;;;;;;;4.82;3.65;;;;;;;;;;5053924;28;20316;-74
2021/03/07 01:40:47;;;;;;;5.10;2.83;;;;;;;;;;5053968;28;20221;-73
2021/03/07 01:43:13;;;;;;;18.13;3.25;;;;;;;;;;5053963;28;20444;-74
2021/03/07 01:45:40;;;;;;;5.55;3.90;;;;;;;;;;5052671;28;20213;-72
2021/03/07 01:48:07;;;;;;;6.97;3.25;;;;;;;;;;5053413;28;20534;-74
2021/03/07 01:50:34;;;;;;;3.88;2.30;;;;;;;;;;5053613;28;20654;-73
2021/03/07 01:53:00;;;;;;;3.40;2.55;;;;;;;;;;5053694;28;20189;-73
2021/03/07 01:55:27;;;;;;;5.55;2.72;;;;;;;;;;5053661;28;20213;-73
2021/03/07 01:57:59;;;;;;;4.18;3.03;;;;;;;;;;5052826;28;20298;-72
2021/03/07 02:00:25;;;;;;;3.10;2.75;;;;;;;;;;5053623;28;20320;-73
2021/03/07 02:02:51;;;;;;;3.93;2.97;;;;;;;;;;5053147;28;20181;-74
2021/03/07 02:05:18;;;;;;;12.02;3.00;;;;;;;;;;5053068;28;20489;-74
2021/03/07 02:07:45;;;;;;;5.50;3.67;;;;;;;;;;5053240;28;20216;-73
2021/03/07 02:10:12;;;;;;;4.22;3.83;;;;;;;;;;5053270;28;20189;-73
2021/03/07 02:12:39;;;;;;;4.03;3.05;;;;;;;;;;5053131;28;20545;-75
2021/03/07 02:15:06;;;;;;;5.47;3.08;;;;;;;;;;5053268;28;21113;-74
2021/03/07 02:17:32;;;;;;;3.75;2.75;;;;;;;;;;5052765;28;20898;-74
2021/03/07 02:19:58;;;;;;;5.18;3.28;;;;;;;;;;5053131;28;20195;-74
2021/03/07 02:22:27;;;;;;;4.07;3.70;;;;;;;;;;5052724;28;20321;-75
2021/03/07 02:24:54;;;;;;;4.93;2.67;;;;;;;;;;5053018;28;20685;-75
2021/03/07 02:27:20;;;;;;;3.85;3.42;;;;;;;;;;5052497;28;20193;-75
2021/03/07 02:29:46;;;;;;;8.65;3.60;;;;;;;;;;5052939;28;21031;-74
2021/03/07 02:32:17;;;;;;;2.93;2.33;;;;;;;;;;5052407;28;20201;-74
2021/03/07 02:34:45;;;;;;;4.70;3.05;;;;;;;;;;5052267;28;20464;-75
2021/03/07 02:37:12;;;;;;;4.60;2.88;;;;;;;;;;5052705;28;20182;-73
2021/03/07 02:39:39;;;;;;;5.80;2.95;;;;;;;;;;5051971;28;20240;-74
2021/03/07 02:42:10;;;;;;;6.10;2.75;;;;;;;;;;5052297;28;20280;-75
2021/03/07 02:44:37;;;;;;;6.90;2.83;;;;;;;;;;5051966;28;20197;-74
2021/03/07 02:47:05;;;;;;;2.30;2.17;;;;;;;;;;5052331;28;20300;-74
2021/03/07 02:49:32;;;;;;;2.85;2.65;;;;;;;;;;5051960;28;20588;-73
2021/03/07 02:51:58;;;;;;;3.58;3.22;;;;;;;;;;5052056;28;20253;-74
2021/03/07 02:54:25;;;;;;;7.15;3.30;;;;;;;;;;5052386;28;20231;-73
2021/03/07 02:56:53;;;;;;;3.50;2.85;;;;;;;;;;5052024;28;20264;-73
2021/03/07 02:59:21;;;;;;;2.95;2.75;;;;;;;;;;5052059;28;20253;-73
2021/03/07 03:01:47;;;;;;;6.65;3.47;;;;;;;;;;5052149;28;20189;-74
2021/03/07 03:04:13;;;;;;;3.70;2.88;;;;;;;;;;5052198;28;20557;-73
2021/03/07 03:06:41;;;;;;;4.75;3.35;;;;;;;;;;5051681;28;20246;-75
2021/03/07 03:09:08;;;;;;;3.45;2.95;;;;;;;;;;5051842;28;20203;-74
2021/03/07 03:11:35;;;;;;;5.03;3.15;;;;;;;;;;5051332;28;20194;-74
2021/03/07 03:14:01;;;;;;;4.50;3.58;;;;;;;;;;5051512;28;20212;-74
2021/03/07 03:16:29;;;;;;;5.05;3.15;;;;;;;;;;5051941;28;20566;-73
2021/03/07 03:18:55;;;;;;;5.85;3.65;;;;;;;;;;5051515;28;20200;-75
2021/03/07 03:21:21;;;;;;;4.03;3.35;;;;;;;;;;5052108;28;20215;-74
2021/03/07 03:23:47;;;;;;;6.05;2.22;;;;;;;;;;5051754;28;20245;-74
2021/03/07 03:26:13;;;;;;;6.72;2.72;;;;;;;;;;5051884;28;20229;-73
2021/03/07 03:28:39;;;;;;;3.60;2.90;;;;;;;;;;5051613;28;20193;-74
2021/03/07 03:31:06;;;;;;;4.43;2.95;;;;;;;;;;5052082;28;20185;-74
2021/03/07 03:33:33;;;;;;;13.38;3.38;;;;;;;;;;5051993;28;20287;-74
2021/03/07 03:35:59;;;;;;;3.03;2.75;;;;;;;;;;5051411;28;20316;-73
2021/03/07 03:38:27;;;;;;;2.33;2.13;;;;;;;;;;5051759;28;20277;-73
2021/03/07 03:40:54;;;;;;;2.88;2.55;;;;;;;;;;5051482;28;20761;-73
2021/03/07 03:43:20;;;;;;;4.35;3.35;;;;;;;;;;5051745;28;20280;-74
2021/03/07 03:45:48;;;;;;;5.50;3.42;;;;;;;;;;5052223;28;20219;-74
2021/03/07 03:48:16;;;;;;;5.05;3.35;;;;;;;;;;5051827;28;20568;-74
2021/03/07 03:50:43;;;;;;;3.08;2.30;;;;;;;;;;5051889;28;20185;-73
2021/03/07 03:53:12;;;;;;;6.57;3.15;;;;;;;;;;5051923;28;20220;-73
2021/03/07 03:55:40;;;;;;;4.50;3.13;;;;;;;;;;5051726;28;20659;-74
2021/03/07 03:58:08;;;;;;;6.15;2.78;;;;;;;;;;5052169;28;20643;-73
2021/03/07 04:00:34;;;;;;;5.30;3.38;;;;;;;;;;5051774;28;20218;-75
2021/03/07 04:03:01;;;;;;;4.43;2.53;;;;;;;;;;5051793;28;20198;-74
2021/03/07 04:05:27;;;;;;;4.07;2.42;;;;;;;;;;5051634;28;20227;-74
2021/03/07 04:07:54;;;;;;;5.07;2.75;;;;;;;;;;5052303;28;20605;-74
2021/03/07 04:10:21;;;;;;;6.88;3.42;;;;;;;;;;5054817;28;20188;-73
2021/03/07 04:12:48;;;;;;;2.53;2.33;;;;;;;;;;5054834;28;20283;-72
2021/03/07 04:15:15;;;;;;;4.70;3.47;;;;;;;;;;5055317;28;20181;-75
2021/03/07 04:17:42;;;;;;;3.17;2.85;;;;;;;;;;5054813;28;20224;-74
2021/03/07 04:20:08;;;;;;;5.20;2.90;;;;;;;;;;5055581;28;20284;-75
2021/03/07 04:22:35;;;;;;;3.42;2.75;;;;;;;;;;5055366;28;20233;-74
2021/03/07 04:25:02;;;;;;;6.35;3.30;;;;;;;;;;5055023;28;20182;-75
2021/03/07 04:27:29;;;;;;;6.75;3.85;;;;;;;;;;5055545;28;20220;-74
2021/03/07 04:29:55;;;;;;;6.60;3.38;;;;;;;;;;5055668;28;20220;-76
2021/03/07 04:32:21;;;;;;;3.67;2.58;;;;;;;;;;5055446;28;20643;-74
2021/03/07 04:34:47;;;;;;;7.75;3.00;;;;;;;;;;5055187;28;20234;-74
2021/03/07 04:37:13;;;;;;;4.25;2.15;;;;;;;;;;5055483;28;20190;-75
2021/03/07 04:39:40;;;;;;;5.07;3.22;;;;;;;;;;5055114;28;20683;-74
2021/03/07 04:42:07;;;;;;;7.90;3.83;;;;;;;;;;5054199;28;20284;-75
2021/03/07 04:44:33;;;;;;;5.82;3.78;;;;;;;;;;5054925;28;20226;-74
2021/03/07 04:46:59;;;;;;;5.00;2.90;;;;;;;;;;5054837;28;20860;-73
2021/03/07 04:49:25;;;;;;;2.17;1.98;;;;;;;;;;5054715;28;20309;-74
2021/03/07 04:51:52;;;;;;;3.05;2.72;;;;;;;;;;5055179;28;20236;-74
2021/03/07 04:54:18;;;;;;;9.10;3.53;;;;;;;;;;5054529;28;20181;-75
2021/03/07 04:56:44;;;;;;;5.53;2.42;;;;;;;;;;5054728;28;20276;-74
2021/03/07 04:59:11;;;;;;;9.18;2.75;;;;;;;;;;5054544;28;20285;-75
2021/03/07 05:01:38;;;;;;;4.20;3.47;;;;;;;;;;5054836;28;20272;-72
2021/03/07 05:04:04;;;;;;;4.13;3.55;;;;;;;;;;5054311;28;20192;-74
2021/03/07 05:06:30;;;;;;;3.50;3.00;;;;;;;;;;5054515;28;20793;-72
2021/03/07 05:08:56;;;;;;;5.17;3.33;;;;;;;;;;5054611;28;20201;-72
2021/03/07 05:11:22;;;;;;;4.67;3.20;;;;;;;;;;5053554;28;20437;-73
2021/03/07 05:13:48;;;;;;;3.53;2.97;;;;;;;;;;5053963;28;20842;-72
2021/03/07 05:16:16;;;;;;;8.53;5.03;;;;;;;;;;5054122;28;20899;-73
2021/03/07 05:18:42;;;;;;;4.80;2.88;;;;;;;;;;5054092;28;20436;-73
2021/03/07 05:21:08;;;;;;;3.65;3.35;;;;;;;;;;5054116;28;20239;-74
2021/03/07 05:23:34;;;;;;;12.43;3.55;;;;;;;;;;5054152;28;20205;-74
2021/03/07 05:26:00;;;;;;;5.40;2.50;;;;;;;;;;5053947;28;20244;-74
2021/03/07 05:28:26;;;;;;;4.80;2.53;;;;;;;;;;5053883;28;20430;-72
2021/03/07 05:30:52;;;;;;;3.97;2.47;;;;;;;;;;5054333;28;20202;-75
2021/03/07 05:33:19;;;;;;;8.90;4.70;;;;;;;;;;5053401;28;20492;-74
2021/03/07 05:35:45;;;;;;;4.82;3.30;;;;;;;;;;5053949;28;20479;-74
2021/03/07 05:38:11;;;;;;;5.03;3.28;;;;;;;;;;5054075;28;20207;-73
2021/03/07 05:40:37;;;;;;;2.63;2.30;;;;;;;;;;5053385;28;20272;-72
2021/03/07 05:43:04;;;;;;;4.57;4.18;;;;;;;;;;5053445;28;20667;-73
2021/03/07 05:45:30;;;;;;;4.38;3.90;;;;;;;;;;5054021;28;20728;-75
2021/03/07 05:47:56;;;;;;;4.23;2.57;;;;;;;;;;5053976;28;20224;-74
2021/03/07 05:50:23;;;;;;;4.72;3.75;;;;;;;;;;5053305;28;20880;-74
2021/03/07 05:52:49;;;;;;;5.53;3.83;;;;;;;;;;5053502;28;20190;-75
2021/03/07 05:55:15;;;;;;;3.65;3.35;;;;;;;;;;5053515;28;20595;-74
2021/03/07 05:57:43;;;;;;;3.17;2.88;;;;;;;;;;5053763;28;20666;-74
2021/03/07 06:00:09;;;;;;;6.45;3.83;;;;;;;;;;5053534;28;20252;-72
2021/03/07 06:02:35;;;;;;;4.50;3.40;;;;;;;;;;5053505;28;20547;-75
2021/03/07 06:05:01;;;;;;;7.27;2.77;;;;;;;;;;5053600;28;20212;-73
2021/03/07 06:07:28;;;;;;;4.07;3.67;;;;;;;;;;5053208;28;20421;-75
2021/03/07 06:10:08;;;;;;;5.53;3.35;;;;;;;;;;5053198;28;20934;-74
2021/03/07 06:12:34;;;;;;;5.35;3.10;;;;;;;;;;5053226;28;20186;-74
2021/03/07 06:15:01;;;;;;;4.53;3.42;;;;;;;;;;5053368;28;20588;-74
2021/03/07 06:17:37;;;;;;;4.72;3.83;;;;;;;;;;5053351;28;20545;-74
2021/03/07 06:20:04;;;;;;;5.95;5.00;;;;;;;;;;5052803;28;20236;-74
2021/03/07 06:22:31;;;;;;;4.00;3.22;;;;;;;;;;5053019;28;20193;-74
2021/03/07 06:24:58;;;;;;;4.60;2.90;;;;;;;;;;5053256;28;20335;-74
2021/03/07 06:27:24;;;;;;;6.85;3.20;;;;;;;;;;5052682;28;20338;-74
2021/03/07 06:29:54;;;;;;;3.88;2.95;;;;;;;;;;5052390;28;20294;-74
2021/03/07 06:32:20;;;;;;;4.50;4.07;;;;;;;;;;5052512;28;20777;-74
2021/03/07 06:34:47;;;;;;;4.10;2.80;;;;;;;;;;5052851;28;20237;-74
2021/03/07 06:37:13;;;;;;;2.20;1.98;;;;;;;;;;5053178;28;20186;-74
2021/03/07 06:39:40;;;;;;;3.23;3.03;;;;;;;;;;5052603;28;20649;-73
2021/03/07 06:42:06;;;;;;;5.82;3.85;;;;;;;;;;5052561;28;20527;-75
2021/03/07 06:44:33;;;;;;;2.90;2.50;;;;;;;;;;5052554;28;20229;-72
2021/03/07 06:47:09;;;;;;;4.70;2.65;;;;;;;;;;5052822;28;20222;-74
2021/03/07 06:49:35;;;;;;;3.47;2.95;;;;;;;;;;5053182;28;20464;-73
2021/03/07 06:52:14;;;;;;;6.33;3.80;;;;;;;;;;5052171;28;20792;-74
2021/03/07 06:54:41;;;;;;;3.45;2.83;;;;;;;;;;5052736;28;20505;-75
2021/03/07 06:57:08;;;;;;;6.78;3.78;;;;;;;;;;5052205;28;20262;-74
2021/03/07 06:59:34;;;;;;;3.00;2.45;;;;;;;;;;5052507;28;20193;-75
2021/03/07 07:02:00;;;;;;;3.70;2.63;;;;;;;;;;5052550;28;20218;-74
2021/03/07 07:04:38;;;;;;;9.63;6.03;;;;;;;;;;5052772;28;20189;-74
2021/03/07 07:07:04;;;;;;;2.95;2.75;;;;;;;;;;5052318;28;20317;-73
2021/03/07 07:09:31;;;;;;;6.78;3.10;;;;;;;;;;5052613;28;20195;-74
2021/03/07 07:11:57;;;;;;;6.32;3.95;;;;;;;;;;5052569;28;20191;-73
2021/03/07 07:14:30;;;;;;;3.63;3.30;;;;;;;;;;5052377;28;20655;-75
2021/03/07 07:16:56;;;;;;;4.97;3.63;;;;;;;;;;5052735;28;20243;-73
2021/03/07 07:19:22;;;;;;;4.13;2.97;;;;;;;;;;5052103;28;20183;-76
2021/03/07 07:21:48;;;;;;;4.40;2.83;;;;;;;;;;5052252;28;20246;-75
2021/03/07 07:24:15;;;;;;;2.70;2.50;;;;;;;;;;5052195;28;20862;-74
2021/03/07 07:26:41;;;;;;;4.68;3.35;;;;;;;;;;5052067;28;20248;-72
2021/03/07 07:29:08;;;;;;;4.10;3.63;;;;;;;;;;5052201;28;20658;-73
2021/03/07 07:31:35;;;;;;;2.70;2.50;;;;;;;;;;5051613;28;20439;-74
2021/03/07 07:34:03;;;;;;;6.15;3.67;;;;;;;;;;5051614;28;20236;-74
2021/03/07 07:36:31;;;;;;;4.03;3.63;;;;;;;;;;5051586;28;20319;-73
2021/03/07 07:38:57;;;;;;;4.32;2.60;;;;;;;;;;5051935;28;20193;-72
2021/03/07 07:41:34;;;;;;;8.07;3.85;;;;;;;;;;5051989;28;20185;-73
2021/03/07 07:44:00;;;;;;;8.45;3.53;;;;;;;;;;5053963;28;20717;-73
2021/03/07 07:46:27;;;;;;;2.72;2.55;;;;;;;;;;5056197;28;20216;-73
2021/03/07 07:48:53;;;;;;;5.60;3.40;;;;;;;;;;5055966;28;20684;-74
2021/03/07 07:51:36;;;;;;;6.88;4.22;;;;;;;;;;5055700;28;20214;-74
2021/03/07 07:54:03;;;;;;;5.63;3.35;;;;;;;;;;5055404;28;20200;-74
2021/03/07 07:56:39;;;;;;;5.63;2.90;;;;;;;;;;5055465;28;20267;-73
2021/03/07 07:59:05;;;;;;;3.95;3.53;;;;;;;;;;5055789;28;20631;-72
2021/03/07 08:01:49;;;;;;;5.35;2.95;;;;;;;;;;5055763;28;20319;-72
2021/03/07 08:04:34;;;;;;;4.22;3.15;;;;;;;;;;5055017;28;20185;-73
2021/03/07 08:07:00;;;;;;;5.07;3.90;;;;;;;;;;5055593;28;20221;-73
2021/03/07 08:09:36;;;;;;;5.57;4.40;;;;;;;;;;5055204;28;20207;-73
2021/03/07 08:12:17;;;;;;;4.43;3.08;;;;;;;;;;5055790;28;20918;-73
2021/03/07 08:14:43;;;;;;;5.43;4.20;;;;;;;;;;5055195;28;20631;-73
2021/03/07 08:17:29;;;;;;;3.83;3.20;;;;;;;;;;5055707;28;20186;-72
2021/03/07 08:19:55;;;;;;;8.73;4.10;;;;;;;;;;5054527;28;20239;-72
2021/03/07 08:22:21;;;;;;;5.63;2.53;;;;;;;;;;5055522;28;20636;-72
2021/03/07 08:24:57;;;;;;;4.07;3.67;;;;;;;;;;5055351;28;20489;-73
2021/03/07 08:27:33;;;;;;;6.45;3.67;;;;;;;;;;5055273;28;20471;-72
2021/03/07 08:29:59;;;;;;;3.53;3.22;;;;;;;;;;5055519;28;20231;-73
2021/03/07 08:32:46;;;;;;;3.78;3.30;;;;;;;;;;5054621;28;20197;-72
2021/03/07 08:35:18;;;;;;;3.70;2.83;;;;;;;;;;5049902;28;20225;-72
2021/03/07 08:37:58;;;;;;;6.53;4.00;;;;;;;;;;5054742;28;20185;-73
2021/03/07 08:40:29;;;;;;;6.30;3.13;;;;;;;;;;5054787;28;20288;-73
2021/03/07 08:42:55;;;;;;;5.75;3.00;;;;;;;;;;5054846;28;20260;-74
2021/03/07 08:45:23;;;;;;;5.75;3.35;;;;;;;;;;5054484;28;20383;-74
2021/03/07 08:47:52;;;;;;;9.82;3.70;;;;;;;;;;5054894;28;20671;-73
2021/03/07 08:50:19;;;;;;;5.35;3.67;;;;;;;;;;5054692;28;20259;-73
2021/03/07 08:52:45;;;;;;;5.55;3.83;;;;;;;;;;5054692;28;20325;-73
2021/03/07 08:55:11;;;;;;;5.10;3.87;;;;;;;;;;5054366;28;20655;-72
2021/03/07 08:57:43;;;;;;;5.88;3.65;;;;;;;;;;5054228;28;20914;-72
2021/03/07 09:00:09;;;;;;;4.38;3.95;;;;;;;;;;5054682;28;20254;-74
2021/03/07 09:02:35;;;;;;;3.50;3.20;;;;;;;;;;5054492;28;20205;-72
2021/03/07 09:05:01;;;;;;;4.30;3.40;;;;;;;;;;5054223;28;20187;-73
2021/03/07 09:07:30;;;;;;;5.10;4.03;;;;;;;;;;5054315;28;20566;-73
2021/03/07 09:09:56;;;;;;;3.78;2.85;;;;;;;;;;5054155;28;20515;-73
2021/03/07 09:12:23;;;;;;;5.05;3.50;;;;;;;;;;5053715;28;20201;-72
2021/03/07 09:14:49;;;;;;;8.02;3.13;;;;;;;;;;5054389;28;20634;-72
2021/03/07 09:17:18;;;;;;;7.45;4.45;;;;;;;;;;5053947;28;20652;-72
2021/03/07 09:19:44;;;;;;;4.20;2.95;;;;;;;;;;5053287;28;20556;-73
2021/03/07 09:22:14;;;;;;;5.10;4.00;;;;;;;;;;5054449;28;20265;-74
2021/03/07 09:24:48;;;;;;;2.90;2.53;;;;;;;;;;5054194;28;20263;-74
2021/03/07 09:27:15;;;;;;;7.40;4.35;;;;;;;;;;5053727;28;20231;-75
2021/03/07 09:29:51;;;;;;;5.80;3.67;;;;;;;;;;5054208;28;20190;-76
2021/03/07 09:32:23;;;;;;;5.57;4.30;;;;;;;;;;5053947;28;20263;-76
2021/03/07 09:34:49;;;;;;;4.45;3.30;;;;;;;;;;5053602;28;20265;-76
2021/03/07 09:37:15;;;;;;;5.20;3.37;;;;;;;;;;5053935;28;20193;-75
2021/03/07 09:39:44;;;;;;;4.57;3.35;;;;;;;;;;5054196;28;20855;-73
2021/03/07 09:42:11;;;;;;;9.27;3.45;;;;;;;;;;5053937;28;20289;-74
2021/03/07 09:44:37;;;;;;;7.32;2.92;;;;;;;;;;5054160;28;20192;-74
2021/03/07 09:47:03;;;;;;;7.27;4.97;;;;;;;;;;5053766;28;20221;-74
2021/03/07 09:49:29;;;;;;;5.30;4.57;;;;;;;;;;5053833;28;20515;-75
2021/03/07 09:51:55;;;;;;;4.50;3.25;;;;;;;;;;5053429;28;20208;-74
2021/03/07 09:54:21;;;;;;;5.28;4.35;;;;;;;;;;5053415;28;20205;-74
2021/03/07 09:56:47;;;;;;;4.50;4.10;;;;;;;;;;5053735;28;20223;-75
2021/03/07 09:59:15;;;;;;;6.40;4.28;;;;;;;;;;5053366;28;20214;-75
2021/03/07 10:01:41;;;;;;;8.77;4.40;;;;;;;;;;5052875;28;20185;-73
2021/03/07 10:04:22;;;;;;;5.03;4.00;;;;;;;;;;5053778;28;20187;-75
2021/03/07 10:06:48;;;;;;;5.72;4.22;;;;;;;;;;5051978;28;20257;-74
2021/03/07 10:09:14;;;;;;;6.87;4.00;;;;;;;;;;5053124;28;20207;-75
2021/03/07 10:11:40;;;;;;;6.82;4.47;;;;;;;;;;5053293;28;20858;-74
2021/03/07 10:14:08;;;;;;;5.00;3.80;;;;;;;;;;5053887;28;20208;-74
2021/03/07 10:16:35;;;;;;;7.75;4.68;;;;;;;;;;5053426;28;20442;-75
2021/03/07 10:19:12;;;;;;;6.18;4.40;;;;;;;;;;5053697;28;20275;-74
2021/03/07 10:21:38;;;;;;;5.20;4.00;;;;;;;;;;5053586;28;20539;-72
2021/03/07 10:24:06;;;;;;;7.03;4.50;;;;;;;;;;5053766;28;20276;-75
2021/03/07 10:26:32;;;;;;;5.85;4.50;;;;;;;;;;5053241;28;20707;-73
2021/03/07 10:28:58;;;;;;;7.10;3.92;;;;;;;;;;5053168;28;20654;-73
2021/03/07 10:31:24;;;;;;;7.18;4.82;;;;;;;;;;5052853;28;20264;-74
2021/03/07 10:33:53;;;;;;;6.70;3.73;;;;;;;;;;5053237;28;20240;-72
2021/03/07 10:36:20;;;;;;;9.68;4.30;;;;;;;;;;5032815;28;20558;-74
2021/03/07 10:38:47;;;;;;;5.93;3.70;;;;;;;;;;5032686;28;20196;-72
2021/03/07 10:41:17;;;;;;;3.90;3.38;;;;;;;;;;5032526;28;20228;-74
2021/03/07 10:43:46;;;;;;;11.07;4.93;;;;;;;;;;5036054;28;20193;-75
2021/03/07 10:46:22;;;;;;;6.40;5.03;;;;;;;;;;5053097;28;20683;-74
2021/03/07 10:48:48;;;;;;;7.10;5.05;;;;;;;;;;5052606;28;20294;-74
2021/03/07 10:51:15;;;;;;;5.50;4.67;;;;;;;;;;5052696;28;20185;-74
2021/03/07 10:53:41;;;;;;;7.63;4.05;;;;;;;;;;5052500;28;20522;-75
2021/03/07 10:56:07;;;;;;;6.60;4.20;;;;;;;;;;5052122;28;20603;-73
2021/03/07 10:58:33;;;;;;;7.00;4.40;;;;;;;;;;5052531;28;21035;-73
2021/03/07 11:00:59;;;;;;;7.37;4.63;;;;;;;;;;5053132;28;20424;-74
2021/03/07 11:03:25;;;;;;;4.03;3.57;;;;;;;;;;5052053;28;20443;-74
2021/03/07 11:05:51;;;;;;;6.60;4.70;;;;;;;;;;5052209;28;20468;-75
2021/03/07 11:08:18;;;;;;;13.43;6.03;;;;;;;;;;5052692;28;20211;-75
2021/03/07 11:10:43;;;;;;;7.32;4.25;;;;;;;;;;5052006;28;20534;-74
2021/03/07 11:13:09;;;;;;;6.93;4.90;;;;;;;;;;5052158;28;20528;-72
2021/03/07 11:15:35;;;;;;;5.70;3.93;;;;;;;;;;5052670;28;20426;-76
2021/03/07 11:18:01;;;;;;;6.85;5.65;;;;;;;;;;5052103;28;20443;-77
2021/03/07 11:20:27;;;;;;;7.60;4.13;;;;;;;;;;5052840;28;20675;-78
2021/03/07 11:22:53;;;;;;;7.80;5.97;;;;;;;;;;5052659;28;20514;-79
2021/03/07 11:25:20;;;;;;;9.43;5.20;;;;;;;;;;5052921;28;20209;-75
2021/03/07 11:27:46;;;;;;;5.72;4.55;;;;;;;;;;5052211;28;20468;-75
2021/03/07 11:30:13;;;;;;;5.65;4.82;;;;;;;;;;5052324;28;20398;-74
2021/03/07 11:32:39;;;;;;;8.27;5.00;;;;;;;;;;5052593;28;20617;-74
2021/03/07 11:35:05;;;;;;;4.80;4.10;;;;;;;;;;5052519;28;20268;-76
2021/03/07 11:37:31;;;;;;;9.73;4.93;;;;;;;;;;5052204;28;20443;-74
2021/03/07 11:39:57;;;;;;;9.90;4.83;;;;;;;;;;5051956;28;20655;-75
2021/03/07 11:42:24;;;;;;;7.80;4.67;;;;;;;;;;5052262;28;20746;-73
2021/03/07 11:44:50;;;;;;;7.18;4.47;;;;;;;;;;5051874;28;20471;-75
2021/03/07 11:47:16;;;;;;;9.05;4.53;;;;;;;;;;5051566;28;20580;-76
2021/03/07 11:49:42;;;;;;;6.55;4.15;;;;;;;;;;5052330;28;20667;-73
2021/03/07 11:52:08;;;;;;;11.48;5.00;;;;;;;;;;5052314;28;20293;-75
2021/03/07 11:54:34;;;;;;;9.57;4.38;;;;;;;;;;5051656;28;20225;-73
2021/03/07 11:57:00;;;;;;;6.10;4.60;;;;;;;;;;5051897;28;20192;-75
2021/03/07 11:59:28;;;;;;;5.47;3.50;;;;;;;;;;5052070;28;20471;-76
2021/03/07 12:01:54;;;;;;;6.35;4.53;;;;;;;;;;5052084;28;20428;-75
2021/03/07 12:04:20;;;;;;;6.20;4.70;;;;;;;;;;5052192;28;20208;-73
2021/03/07 12:06:46;;;;;;;10.23;4.55;;;;;;;;;;5052075;28;20821;-74
2021/03/07 12:09:12;;;;;;;6.45;3.97;;;;;;;;;;5053003;28;20749;-75
2021/03/07 12:11:38;;;;;;;6.07;3.97;;;;;;;;;;5051941;28;20620;-75
2021/03/07 12:14:04;;;;;;;5.30;3.97;;;;;;;;;;5052241;28;20288;-75
2021/03/07 12:16:31;;;;;;;7.18;3.85;;;;;;;;;;5052217;28;20510;-74
2021/03/07 12:18:57;;;;;;;7.20;4.20;;;;;;;;;;5052418;28;20186;-74
2021/03/07 12:21:23;;;;;;;5.50;3.63;;;;;;;;;;5052052;28;20228;-75
2021/03/07 12:23:49;;;;;;;6.37;3.57;;;;;;;;;;5051666;28;20443;-74
2021/03/07 12:26:15;;;;;;;7.27;4.07;;;;;;;;;;5051768;28;20878;-73
2021/03/07 12:28:41;;;;;;;6.90;3.97;;;;;;;;;;5051848;28;20506;-74
2021/03/07 12:31:07;;;;;;;5.80;4.57;;;;;;;;;;5054620;28;20455;-74
2021/03/07 12:33:34;;;;;;;6.43;4.10;;;;;;;;;;5055296;28;21012;-74
2021/03/07 12:36:00;;;;;;;7.95;5.15;;;;;;;;;;5055177;28;20490;-74
2021/03/07 12:38:26;;;;;;;6.80;5.07;;;;;;;;;;5056253;28;20185;-75
2021/03/07 12:40:52;;;;;;;6.30;4.22;;;;;;;;;;5054979;28;20451;-74
2021/03/07 12:43:17;;;;;;;4.23;3.60;;;;;;;;;;5054682;28;20198;-75
2021/03/07 12:45:43;;;;;;;5.53;4.00;;;;;;;;;;5055383;28;20432;-74
2021/03/07 12:48:09;;;;;;;8.83;3.80;;;;;;;;;;5055346;28;20837;-73
2021/03/07 12:50:36;;;;;;;8.70;4.88;;;;;;;;;;5054987;28;20909;-74
2021/03/07 12:53:04;;;;;;;10.23;5.78;;;;;;;;;;5054825;28;20185;-73
2021/03/07 12:55:30;;;;;;;9.23;4.25;;;;;;;;;;5054721;28;20617;-73
2021/03/07 12:57:56;;;;;;;5.87;4.43;;;;;;;;;;5054642;28;20204;-73
2021/03/07 13:00:22;;;;;;;10.50;5.22;;;;;;;;;;5054429;28;20431;-73
2021/03/07 13:02:48;;;;;;;5.80;4.30;;;;;;;;;;5054860;28;20668;-74
2021/03/07 13:05:14;;;;;;;6.00;4.80;;;;;;;;;;5054315;28;20244;-73
2021/03/07 13:07:41;;;;;;;6.65;4.72;;;;;;;;;;5054796;28;20463;-73
2021/03/07 13:10:08;;;;;;;8.15;5.78;;;;;;;;;;5054565;28;20597;-73
2021/03/07 13:12:34;;;;;;;5.65;3.80;;;;;;;;;;5054508;28;20659;-74
2021/03/07 13:15:00;;;;;;;7.60;4.35;;;;;;;;;;5054272;28;20216;-73
2021/03/07 13:17:26;;;;;;;6.57;4.57;;;;;;;;;;5054580;28;20189;-74
2021/03/07 13:19:52;;;;;;;10.52;5.28;;;;;;;;;;5054249;28;20206;-73
2021/03/07 13:22:18;;;;;;;6.53;4.80;;;;;;;;;;5054035;28;20193;-74
2021/03/07 13:24:45;;;;;;;6.60;5.23;;;;;;;;;;5054568;28;20509;-72
2021/03/07 13:27:11;;;;;;;7.35;4.80;;;;;;;;;;5054154;28;20837;-73
2021/03/07 13:29:37;;;;;;;6.93;4.43;;;;;;;;;;5054146;28;20214;-73
2021/03/07 13:32:03;;;;;;;9.63;5.30;;;;;;;;;;5054131;28;20459;-74
2021/03/07 13:34:29;;;;;;;6.68;4.80;;;;;;;;;;5054185;28;20240;-74
2021/03/07 13:36:55;;;;;;;6.13;4.80;;;;;;;;;;5053756;28;20265;-74
2021/03/07 13:39:21;;;;;;;4.57;4.10;;;;;;;;;;5053740;28;20518;-76
2021/03/07 13:41:48;;;;;;;9.87;5.43;;;;;;;;;;5052166;28;20446;-73
2021/03/07 13:44:14;;;;;;;7.82;5.70;;;;;;;;;;5053800;28;20447;-72
2021/03/07 13:46:40;;;;;;;7.40;5.37;;;;;;;;;;5053438;28;20209;-72
2021/03/07 13:49:06;;;;;;;8.67;5.00;;;;;;;;;;5053209;28;20544;-71
2021/03/07 13:51:32;;;;;;;7.73;4.70;;;;;;;;;;5053657;28;20766;-73
2021/03/07 13:53:57;;;;;;;8.70;4.70;;;;;;;;;;5053212;28;20447;-74
2021/03/07 13:56:23;;;;;;;6.63;5.07;;;;;;;;;;5053479;28;20427;-74
2021/03/07 13:58:50;;;;;;;6.77;4.83;;;;;;;;;;5053648;28;20428;-73
2021/03/07 14:01:16;;;;;;;8.25;5.20;;;;;;;;;;5053511;28;20840;-74
2021/03/07 14:03:42;;;;;;;9.90;5.70;;;;;;;;;;5053543;28;20192;-74
2021/03/07 14:06:08;;;;;;;8.67;5.37;;;;;;;;;;5052812;28;20880;-74
2021/03/07 14:08:34;;;;;;;9.00;5.90;;;;;;;;;;5053270;28;20970;-72
2021/03/07 14:11:00;;;;;;;7.80;5.10;;;;;;;;;;5052990;28;20212;-73
2021/03/07 14:13:26;;;;;;;6.67;4.60;;;;;;;;;;5053307;28;20956;-73
2021/03/07 14:15:52;;;;;;;8.70;5.83;;;;;;;;;;5052756;28;20435;-74
2021/03/07 14:18:18;;;;;;;7.90;6.40;;;;;;;;;;5052583;28;20539;-74
2021/03/07 14:20:44;;;;;;;10.83;6.10;;;;;;;;;;5052427;28;20196;-76
2021/03/07 14:23:11;;;;;;;9.50;6.22;;;;;;;;;;5052677;28;20816;-74
2021/03/07 14:25:37;;;;;;;7.68;5.50;;;;;;;;;;5052634;28;20390;-73
2021/03/07 14:28:04;;;;;;;8.88;5.32;;;;;;;;;;5052626;28;20236;-74
2021/03/07 14:30:30;;;;;;;8.50;6.40;;;;;;;;;;5053107;28;20610;-73
2021/03/07 14:32:57;;;;;;;10.00;5.45;;;;;;;;;;5052596;28;20233;-72
2021/03/07 14:35:23;;;;;;;11.02;6.50;;;;;;;;;;5052894;28;20229;-72
2021/03/07 14:37:49;;;;;;;8.77;5.80;;;;;;;;;;5053224;28;20192;-73
2021/03/07 14:40:15;;;;;;;8.90;6.47;;;;;;;;;;5052881;28;20443;-71
2021/03/07 14:42:42;;;;;;;5.95;5.15;;;;;;;;;;5052623;28;20424;-74